Time;durP1;ratioP1;P1;durP2;ratioP2;P2;SDS_P1;SDS_P2;PMS_P1;PMS_P2;Temp;Humidity;BMP_temperature;BMP_pressure;BME280_temperature;BME280_humidity;BME280_pressure;Samples;Min_cycle;Max_cycle;Signal;HPM_P1;HPM_P2
2020/12/23 00:00:48;;;;;;;9.47;7.33;;;;;;;;;;5086062;28;20183;-62
2020/12/23 00:03:14;;;;;;;9.97;8.30;;;;;;;;;;5110329;28;20522;-62
2020/12/23 00:05:40;;;;;;;9.50;8.23;;;;;;;;;;5102031;28;20218;-62
2020/12/23 00:08:06;;;;;;;8.20;7.37;;;;;;;;;;5110714;28;20256;-63
2020/12/23 00:10:32;;;;;;;9.30;8.03;;;;;;;;;;5111846;28;20199;-62
2020/12/23 00:12:58;;;;;;;9.73;8.53;;;;;;;;;;5108307;28;20308;-62
2020/12/23 00:15:24;;;;;;;10.53;8.20;;;;;;;;;;5092092;28;20247;-62
2020/12/23 00:17:51;;;;;;;9.47;8.53;;;;;;;;;;5111641;28;20178;-62
2020/12/23 00:20:17;;;;;;;11.57;9.13;;;;;;;;;;5099080;27;20206;-62
2020/12/23 00:22:43;;;;;;;11.27;8.90;;;;;;;;;;5118751;27;20243;-62
2020/12/23 00:25:09;;;;;;;12.47;10.30;;;;;;;;;;5100439;28;20203;-62
2020/12/23 00:27:35;;;;;;;14.07;10.30;;;;;;;;;;5099002;28;20206;-62
2020/12/23 00:30:01;;;;;;;12.43;10.53;;;;;;;;;;5098609;28;20230;-62
2020/12/23 00:32:28;;;;;;;14.03;10.63;;;;;;;;;;5111131;28;20638;-62
2020/12/23 00:34:54;;;;;;;13.77;10.13;;;;;;;;;;5098900;28;20183;-61
2020/12/23 00:37:20;;;;;;;13.17;10.00;;;;;;;;;;5084358;28;20578;-62
2020/12/23 00:39:46;;;;;;;13.50;10.53;;;;;;;;;;5095771;28;20243;-61
2020/12/23 00:42:12;;;;;;;12.03;9.53;;;;;;;;;;5102960;28;20562;-62
2020/12/23 00:44:38;;;;;;;9.83;8.83;;;;;;;;;;5090178;28;20217;-62
2020/12/23 00:47:04;;;;;;;14.97;10.43;;;;;;;;;;5103018;28;20175;-62
2020/12/23 00:49:30;;;;;;;13.63;9.77;;;;;;;;;;5111649;27;20185;-62
2020/12/23 00:51:56;;;;;;;15.03;10.30;;;;;;;;;;5116427;27;20168;-62
2020/12/23 00:54:22;;;;;;;12.90;9.73;;;;;;;;;;5097981;28;20176;-61
2020/12/23 00:56:48;;;;;;;15.77;10.47;;;;;;;;;;5083845;28;20183;-61
2020/12/23 00:59:14;;;;;;;14.07;9.03;;;;;;;;;;5102996;28;20182;-61
2020/12/23 01:01:40;;;;;;;14.33;9.60;;;;;;;;;;5106964;28;20606;-61
2020/12/23 01:04:06;;;;;;;12.13;9.37;;;;;;;;;;5106750;28;20702;-62
2020/12/23 01:06:32;;;;;;;16.07;10.00;;;;;;;;;;5088174;28;20175;-62
2020/12/23 01:08:58;;;;;;;12.90;9.43;;;;;;;;;;5091153;28;20258;-62
2020/12/23 01:11:24;;;;;;;13.73;9.80;;;;;;;;;;5090395;28;20179;-62
2020/12/23 01:13:50;;;;;;;12.27;8.93;;;;;;;;;;5101913;28;20254;-62
2020/12/23 01:16:22;;;;;;;12.83;10.13;;;;;;;;;;5102731;28;20257;-62
2020/12/23 01:18:49;;;;;;;12.10;9.47;;;;;;;;;;5109611;28;20233;-62
2020/12/23 01:21:15;;;;;;;12.80;10.03;;;;;;;;;;5093048;28;20179;-62
2020/12/23 01:23:44;;;;;;;12.20;8.63;;;;;;;;;;5106487;28;20175;-62
2020/12/23 01:26:10;;;;;;;12.90;9.90;;;;;;;;;;5094278;28;20290;-61
2020/12/23 01:28:36;;;;;;;11.73;9.00;;;;;;;;;;5096909;28;20180;-62
2020/12/23 01:31:04;;;;;;;13.13;9.57;;;;;;;;;;5108588;28;20597;-62
2020/12/23 01:33:30;;;;;;;11.10;8.83;;;;;;;;;;5109621;28;20566;-61
2020/12/23 01:35:56;;;;;;;13.67;9.53;;;;;;;;;;5115342;27;20178;-61
2020/12/23 01:38:22;;;;;;;15.07;10.00;;;;;;;;;;5100149;27;20222;-62
2020/12/23 01:40:55;;;;;;;10.63;8.43;;;;;;;;;;5105912;28;20171;-62
2020/12/23 01:43:21;;;;;;;11.43;9.80;;;;;;;;;;5113255;28;20525;-62
2020/12/23 01:45:47;;;;;;;14.43;9.27;;;;;;;;;;5113573;28;20287;-62
2020/12/23 01:48:17;;;;;;;13.40;8.90;;;;;;;;;;5113809;28;20617;-62
2020/12/23 01:50:44;;;;;;;12.33;9.27;;;;;;;;;;5090994;28;20180;-62
2020/12/23 01:53:12;;;;;;;12.93;8.40;;;;;;;;;;5105985;28;20244;-64
2020/12/23 01:55:38;;;;;;;12.07;8.73;;;;;;;;;;5109787;28;20193;-62
2020/12/23 01:58:04;;;;;;;9.60;8.60;;;;;;;;;;5106051;28;20726;-62
2020/12/23 02:00:30;;;;;;;11.77;8.90;;;;;;;;;;5095959;28;20203;-62
2020/12/23 02:02:56;;;;;;;9.83;8.60;;;;;;;;;;5095402;28;20203;-62
2020/12/23 02:05:22;;;;;;;12.40;9.73;;;;;;;;;;5103234;28;20215;-61
2020/12/23 02:07:50;;;;;;;12.80;8.77;;;;;;;;;;5104226;28;20270;-60
2020/12/23 02:10:16;;;;;;;11.37;8.53;;;;;;;;;;5113778;28;20167;-60
2020/12/23 02:12:42;;;;;;;8.97;7.80;;;;;;;;;;5105853;28;20221;-63
2020/12/23 02:15:11;;;;;;;13.33;8.73;;;;;;;;;;5112086;28;20271;-62
2020/12/23 02:17:38;;;;;;;13.43;9.13;;;;;;;;;;5092156;28;20191;-64
2020/12/23 02:20:05;;;;;;;14.20;9.30;;;;;;;;;;5108430;27;20187;-61
2020/12/23 02:22:31;;;;;;;13.17;8.63;;;;;;;;;;5113794;28;20580;-61
2020/12/23 02:24:58;;;;;;;11.20;8.23;;;;;;;;;;5101542;28;20357;-62
2020/12/23 02:27:24;;;;;;;9.70;7.57;;;;;;;;;;5101111;28;20214;-61
2020/12/23 02:29:51;;;;;;;11.77;9.27;;;;;;;;;;5104247;28;20177;-61
2020/12/23 02:32:18;;;;;;;11.47;7.63;;;;;;;;;;5112858;28;20709;-62
2020/12/23 02:34:44;;;;;;;10.63;8.17;;;;;;;;;;5111718;28;20719;-62
2020/12/23 02:37:11;;;;;;;9.10;7.60;;;;;;;;;;5111470;28;20175;-63
2020/12/23 02:39:44;;;;;;;8.53;7.57;;;;;;;;;;5095039;28;20183;-63
2020/12/23 02:42:10;;;;;;;8.53;7.53;;;;;;;;;;5112258;28;20186;-62
2020/12/23 02:44:36;;;;;;;11.77;8.17;;;;;;;;;;5113014;28;20199;-61
2020/12/23 02:47:04;;;;;;;12.47;7.77;;;;;;;;;;5107465;28;20198;-61
2020/12/23 02:49:31;;;;;;;9.47;7.53;;;;;;;;;;5111847;28;20262;-61
2020/12/23 02:51:57;;;;;;;10.93;8.30;;;;;;;;;;5112011;28;20201;-61
2020/12/23 02:54:23;;;;;;;10.90;8.33;;;;;;;;;;5106993;28;20181;-61
2020/12/23 02:56:49;;;;;;;11.43;8.50;;;;;;;;;;5103322;28;20253;-61
2020/12/23 02:59:15;;;;;;;10.47;7.83;;;;;;;;;;5112745;28;20258;-62
2020/12/23 03:01:41;;;;;;;15.27;8.47;;;;;;;;;;5111506;28;20254;-63
2020/12/23 03:04:08;;;;;;;13.23;8.77;;;;;;;;;;5111178;28;20210;-61
2020/12/23 03:06:34;;;;;;;9.27;7.87;;;;;;;;;;5109641;28;20174;-63
2020/12/23 03:09:01;;;;;;;10.27;8.23;;;;;;;;;;5105997;28;20175;-61
2020/12/23 03:11:27;;;;;;;11.80;8.97;;;;;;;;;;5101430;28;20205;-63
2020/12/23 03:13:53;;;;;;;10.30;7.53;;;;;;;;;;5112365;28;20626;-62
2020/12/23 03:16:19;;;;;;;12.00;8.90;;;;;;;;;;5111181;28;20570;-61
2020/12/23 03:18:45;;;;;;;11.17;8.77;;;;;;;;;;5111011;28;20171;-61
2020/12/23 03:21:11;;;;;;;12.77;8.00;;;;;;;;;;5112178;28;20171;-61
2020/12/23 03:23:37;;;;;;;11.40;8.70;;;;;;;;;;5086914;28;20175;-62
2020/12/23 03:26:04;;;;;;;11.40;8.43;;;;;;;;;;5093191;28;20209;-62
2020/12/23 03:28:30;;;;;;;11.93;8.60;;;;;;;;;;5111622;28;20175;-62
2020/12/23 03:30:56;;;;;;;12.83;8.53;;;;;;;;;;5111475;28;20199;-61
2020/12/23 03:33:22;;;;;;;11.47;8.87;;;;;;;;;;5111986;28;20167;-61
2020/12/23 03:35:48;;;;;;;10.13;8.57;;;;;;;;;;5109615;28;20171;-62
2020/12/23 03:38:14;;;;;;;13.50;9.60;;;;;;;;;;5089250;28;20187;-62
2020/12/23 03:40:40;;;;;;;11.20;9.03;;;;;;;;;;5092496;28;20179;-61
2020/12/23 03:43:06;;;;;;;13.90;9.30;;;;;;;;;;5074718;28;20187;-63
2020/12/23 03:45:32;;;;;;;9.20;7.80;;;;;;;;;;5110524;28;20556;-62
2020/12/23 03:47:58;;;;;;;13.57;8.93;;;;;;;;;;5119591;27;20179;-62
2020/12/23 03:50:24;;;;;;;11.70;8.13;;;;;;;;;;5110367;28;20198;-61
2020/12/23 03:52:50;;;;;;;10.50;8.63;;;;;;;;;;5110691;28;20560;-62
2020/12/23 03:55:16;;;;;;;10.83;8.17;;;;;;;;;;5092192;28;20186;-62
2020/12/23 03:57:42;;;;;;;10.13;8.03;;;;;;;;;;5087822;28;20194;-62
2020/12/23 04:00:09;;;;;;;11.43;8.87;;;;;;;;;;5110225;28;20198;-62
2020/12/23 04:02:35;;;;;;;11.07;9.10;;;;;;;;;;5111441;28;20190;-62
2020/12/23 04:05:01;;;;;;;12.63;8.57;;;;;;;;;;5092406;28;20253;-61
2020/12/23 04:07:28;;;;;;;12.47;9.30;;;;;;;;;;5086078;28;20216;-63
2020/12/23 04:09:54;;;;;;;11.73;8.63;;;;;;;;;;5108469;28;20237;-63
2020/12/23 04:12:20;;;;;;;10.23;8.30;;;;;;;;;;5110282;28;20167;-60
2020/12/23 04:14:46;;;;;;;12.13;8.50;;;;;;;;;;5092814;28;20565;-61
2020/12/23 04:17:13;;;;;;;10.37;8.83;;;;;;;;;;5109020;28;20194;-62
2020/12/23 04:19:39;;;;;;;12.90;9.43;;;;;;;;;;5111079;28;20215;-61
2020/12/23 04:22:05;;;;;;;11.30;9.03;;;;;;;;;;5107050;28;20214;-62
2020/12/23 04:24:31;;;;;;;9.17;8.20;;;;;;;;;;5091576;28;20298;-62
2020/12/23 04:26:57;;;;;;;10.60;8.30;;;;;;;;;;5095782;28;20528;-62
2020/12/23 04:29:23;;;;;;;10.80;7.70;;;;;;;;;;5101909;28;20510;-61
2020/12/23 04:31:49;;;;;;;8.60;7.70;;;;;;;;;;5103635;28;20300;-62
2020/12/23 04:34:15;;;;;;;10.83;8.10;;;;;;;;;;5079830;28;20195;-61
2020/12/23 04:36:42;;;;;;;8.67;7.77;;;;;;;;;;5103277;28;20217;-61
2020/12/23 04:39:08;;;;;;;11.77;7.80;;;;;;;;;;5106991;27;20186;-62
2020/12/23 04:41:35;;;;;;;12.43;7.40;;;;;;;;;;5111147;28;20704;-62
2020/12/23 04:44:05;;;;;;;10.53;7.97;;;;;;;;;;5091958;28;20167;-62
2020/12/23 04:46:35;;;;;;;10.47;7.90;;;;;;;;;;5109992;28;20237;-61
2020/12/23 04:49:01;;;;;;;12.63;8.87;;;;;;;;;;5109736;28;20190;-62
2020/12/23 04:51:31;;;;;;;8.07;7.27;;;;;;;;;;5094332;28;20634;-61
2020/12/23 04:53:58;;;;;;;11.77;8.53;;;;;;;;;;5109696;28;20252;-61
2020/12/23 04:56:26;;;;;;;9.43;7.93;;;;;;;;;;5110291;28;20264;-61
2020/12/23 04:58:52;;;;;;;11.03;8.37;;;;;;;;;;5109229;28;20202;-62
2020/12/23 05:01:18;;;;;;;10.33;8.20;;;;;;;;;;5110717;28;20262;-62
2020/12/23 05:03:45;;;;;;;8.63;7.67;;;;;;;;;;5109000;28;20317;-63
2020/12/23 05:06:12;;;;;;;8.77;7.80;;;;;;;;;;5103916;28;20215;-62
2020/12/23 05:08:38;;;;;;;9.27;8.00;;;;;;;;;;5094657;28;20244;-62
2020/12/23 05:11:10;;;;;;;9.70;7.80;;;;;;;;;;5094768;28;20622;-61
2020/12/23 05:13:37;;;;;;;9.57;8.07;;;;;;;;;;5108667;28;20625;-62
2020/12/23 05:16:04;;;;;;;8.97;7.47;;;;;;;;;;5108962;28;20180;-62
2020/12/23 05:18:34;;;;;;;7.90;7.10;;;;;;;;;;5098075;28;20642;-62
2020/12/23 05:21:00;;;;;;;9.90;7.90;;;;;;;;;;5106697;28;20179;-62
2020/12/23 05:23:30;;;;;;;9.17;6.77;;;;;;;;;;5086429;28;20645;-62
2020/12/23 05:26:06;;;;;;;8.13;7.33;;;;;;;;;;5104490;28;20195;-62
2020/12/23 05:28:33;;;;;;;9.00;6.80;;;;;;;;;;5091791;28;20175;-62
2020/12/23 05:31:01;;;;;;;9.57;6.67;;;;;;;;;;5092260;28;20195;-62
2020/12/23 05:33:27;;;;;;;7.67;6.20;;;;;;;;;;5091470;28;20262;-62
2020/12/23 05:35:55;;;;;;;8.33;6.70;;;;;;;;;;5102745;28;20175;-62
2020/12/23 05:38:21;;;;;;;7.67;6.20;;;;;;;;;;5100931;28;20572;-62
2020/12/23 05:40:47;;;;;;;7.93;6.63;;;;;;;;;;5103733;28;20180;-62
2020/12/23 05:43:15;;;;;;;9.00;6.53;;;;;;;;;;5097337;28;20267;-62
2020/12/23 05:45:44;;;;;;;8.60;5.87;;;;;;;;;;5089773;28;20194;-62
2020/12/23 05:48:13;;;;;;;7.67;5.97;;;;;;;;;;5091006;28;20333;-62
2020/12/23 05:50:40;;;;;;;8.33;6.63;;;;;;;;;;5090871;28;20217;-61
2020/12/23 05:53:15;;;;;;;6.97;5.23;;;;;;;;;;5102520;28;20238;-62
2020/12/23 05:55:48;;;;;;;8.50;5.87;;;;;;;;;;5097497;28;20178;-62
2020/12/23 05:58:24;;;;;;;7.00;5.87;;;;;;;;;;5090095;28;20187;-61
2020/12/23 06:00:51;;;;;;;8.87;5.80;;;;;;;;;;5078827;28;20185;-62
2020/12/23 06:03:31;;;;;;;6.97;5.10;;;;;;;;;;5106812;28;20244;-62
2020/12/23 06:05:58;;;;;;;7.17;5.77;;;;;;;;;;5103829;28;20268;-62
2020/12/23 06:08:29;;;;;;;5.60;5.00;;;;;;;;;;5114991;28;20179;-62
2020/12/23 06:11:03;;;;;;;6.27;5.27;;;;;;;;;;5095111;28;20727;-62
2020/12/23 06:13:32;;;;;;;6.00;4.93;;;;;;;;;;5098235;28;20154;-61
2020/12/23 06:15:59;;;;;;;7.27;5.03;;;;;;;;;;5083717;28;20186;-61
2020/12/23 06:18:26;;;;;;;8.70;5.30;;;;;;;;;;5112732;28;20814;-62
2020/12/23 06:20:54;;;;;;;6.50;5.07;;;;;;;;;;5112759;28;20224;-62
2020/12/23 06:23:27;;;;;;;6.47;4.90;;;;;;;;;;5113531;28;20604;-62
2020/12/23 06:25:53;;;;;;;7.90;5.77;;;;;;;;;;5113258;28;20198;-61
2020/12/23 06:28:22;;;;;;;6.47;5.50;;;;;;;;;;5108759;27;20178;-63
2020/12/23 06:30:52;;;;;;;5.43;4.93;;;;;;;;;;5111345;28;20193;-62
2020/12/23 06:33:19;;;;;;;6.33;5.03;;;;;;;;;;5111674;28;20626;-62
2020/12/23 06:35:45;;;;;;;5.43;4.63;;;;;;;;;;5111802;28;20182;-62
2020/12/23 06:38:20;;;;;;;7.53;5.23;;;;;;;;;;5121634;27;20186;-63
2020/12/23 06:40:59;;;;;;;5.47;4.70;;;;;;;;;;5123831;27;20546;-61
2020/12/23 06:43:44;;;;;;;5.10;4.60;;;;;;;;;;5078800;28;20725;-64
2020/12/23 06:46:10;;;;;;;5.30;4.73;;;;;;;;;;5104474;28;20195;-61
2020/12/23 06:48:36;;;;;;;5.83;4.70;;;;;;;;;;5113090;27;20182;-62
2020/12/23 06:51:02;;;;;;;6.10;4.83;;;;;;;;;;5098548;28;20238;-62
2020/12/23 06:53:35;;;;;;;7.67;4.77;;;;;;;;;;5108286;28;20187;-62
2020/12/23 06:56:01;;;;;;;5.33;4.23;;;;;;;;;;5111925;28;20629;-62
2020/12/23 06:58:40;;;;;;;5.13;4.60;;;;;;;;;;5111847;27;20735;-62
2020/12/23 07:01:19;;;;;;;5.27;4.77;;;;;;;;;;5106301;27;20181;-62
2020/12/23 07:03:46;;;;;;;5.43;4.90;;;;;;;;;;5092477;28;20669;-62
2020/12/23 07:06:31;;;;;;;5.70;4.70;;;;;;;;;;5098102;27;20626;-62
2020/12/23 07:09:00;;;;;;;4.87;4.10;;;;;;;;;;5114882;27;20579;-62
2020/12/23 07:11:28;;;;;;;6.83;4.27;;;;;;;;;;5114450;27;20248;-61
2020/12/23 07:13:58;;;;;;;4.87;4.20;;;;;;;;;;5107645;27;20179;-61
2020/12/23 07:16:25;;;;;;;4.70;4.20;;;;;;;;;;5078940;28;20191;-62
2020/12/23 07:18:51;;;;;;;4.70;4.10;;;;;;;;;;5101584;27;20241;-62
2020/12/23 07:21:20;;;;;;;4.63;4.20;;;;;;;;;;5107507;27;20191;-62
2020/12/23 07:23:47;;;;;;;5.97;4.00;;;;;;;;;;5106350;27;20175;-62
2020/12/23 07:26:15;;;;;;;4.27;3.87;;;;;;;;;;5100496;28;20195;-61
2020/12/23 07:28:42;;;;;;;5.30;4.20;;;;;;;;;;5105333;28;20179;-62
2020/12/23 07:31:08;;;;;;;8.83;4.47;;;;;;;;;;5108072;28;20657;-62
2020/12/23 07:33:39;;;;;;;5.37;4.70;;;;;;;;;;5109394;28;20179;-62
2020/12/23 07:36:05;;;;;;;4.70;4.20;;;;;;;;;;5075038;28;20217;-62
2020/12/23 07:38:32;;;;;;;4.63;3.93;;;;;;;;;;5102894;28;20541;-63
2020/12/23 07:40:59;;;;;;;5.73;4.33;;;;;;;;;;5111968;28;20171;-61
2020/12/23 07:43:26;;;;;;;4.70;4.30;;;;;;;;;;5095226;28;20551;-62
2020/12/23 07:45:52;;;;;;;5.43;4.67;;;;;;;;;;5079756;28;20207;-62
2020/12/23 07:48:20;;;;;;;4.60;4.07;;;;;;;;;;5111786;28;20520;-62
2020/12/23 07:50:47;;;;;;;5.43;4.37;;;;;;;;;;5107923;27;20629;-62
2020/12/23 07:53:14;;;;;;;6.83;4.60;;;;;;;;;;5100287;28;20197;-61
2020/12/23 07:55:41;;;;;;;5.70;5.13;;;;;;;;;;5085604;28;20187;-62
2020/12/23 07:58:07;;;;;;;6.17;5.00;;;;;;;;;;5106565;27;20190;-62
2020/12/23 08:00:33;;;;;;;4.80;4.30;;;;;;;;;;5107691;27;20221;-62
2020/12/23 08:02:59;;;;;;;4.93;4.40;;;;;;;;;;5124315;27;20182;-62
2020/12/23 08:05:25;;;;;;;7.33;5.23;;;;;;;;;;5097547;28;20230;-61
2020/12/23 08:07:52;;;;;;;6.07;5.10;;;;;;;;;;5094934;28;20978;-62
2020/12/23 08:10:19;;;;;;;4.90;4.40;;;;;;;;;;5111322;28;20179;-62
2020/12/23 08:12:53;;;;;;;5.60;3.87;;;;;;;;;;5111217;28;20215;-62
2020/12/23 08:15:19;;;;;;;5.13;4.20;;;;;;;;;;5090545;28;20176;-62
2020/12/23 08:17:45;;;;;;;5.87;4.53;;;;;;;;;;5089921;27;20210;-62
2020/12/23 08:20:13;;;;;;;4.97;4.47;;;;;;;;;;5122088;27;20178;-61
2020/12/23 08:22:40;;;;;;;6.30;5.10;;;;;;;;;;5112122;27;20175;-61
2020/12/23 08:25:08;;;;;;;5.00;4.50;;;;;;;;;;5106071;28;20199;-62
2020/12/23 08:27:34;;;;;;;5.27;4.77;;;;;;;;;;5097131;28;20623;-62
2020/12/23 08:30:01;;;;;;;4.73;4.33;;;;;;;;;;5071924;28;20689;-62
2020/12/23 08:32:31;;;;;;;6.60;4.73;;;;;;;;;;5092493;28;20186;-62
2020/12/23 08:34:59;;;;;;;4.83;4.33;;;;;;;;;;5097689;27;20187;-63
2020/12/23 08:37:26;;;;;;;5.73;4.93;;;;;;;;;;5092806;27;20193;-61
2020/12/23 08:39:58;;;;;;;4.97;4.10;;;;;;;;;;5117073;27;20179;-62
2020/12/23 08:42:25;;;;;;;6.00;4.07;;;;;;;;;;5115661;27;20201;-63
2020/12/23 08:44:52;;;;;;;4.47;4.00;;;;;;;;;;5093949;28;20203;-62
2020/12/23 08:47:39;;;;;;;4.60;4.03;;;;;;;;;;5109713;27;20520;-63
2020/12/23 08:50:05;;;;;;;4.67;4.10;;;;;;;;;;5099760;27;20270;-62
2020/12/23 08:52:31;;;;;;;4.40;3.97;;;;;;;;;;5109707;27;20262;-62
2020/12/23 08:54:57;;;;;;;4.70;4.20;;;;;;;;;;5106956;28;20171;-62
2020/12/23 08:57:24;;;;;;;5.60;4.03;;;;;;;;;;5109825;28;20183;-63
2020/12/23 08:59:50;;;;;;;5.20;3.97;;;;;;;;;;5099312;27;20541;-64
2020/12/23 09:02:17;;;;;;;4.50;4.00;;;;;;;;;;5114068;27;20229;-62
2020/12/23 09:04:43;;;;;;;4.67;4.20;;;;;;;;;;5099727;28;20218;-62
2020/12/23 09:07:10;;;;;;;4.13;3.73;;;;;;;;;;5108720;28;20218;-62
2020/12/23 09:09:36;;;;;;;6.33;4.43;;;;;;;;;;5102926;28;20232;-63
2020/12/23 09:12:04;;;;;;;4.70;4.03;;;;;;;;;;5100847;28;20171;-62
2020/12/23 09:14:31;;;;;;;10.20;4.73;;;;;;;;;;5088328;28;20176;-62
2020/12/23 09:17:05;;;;;;;10.60;4.33;;;;;;;;;;5104478;28;20167;-60
2020/12/23 09:20:06;;;;;;;4.10;3.70;;;;;;;;;;5095363;28;20172;-62
2020/12/23 09:22:36;;;;;;;9.43;4.20;;;;;;;;;;5045683;28;20263;-62
2020/12/23 09:25:11;;;;;;;5.10;3.97;;;;;;;;;;5070952;28;20206;-62
2020/12/23 09:27:38;;;;;;;6.27;4.40;;;;;;;;;;5110835;28;20549;-63
2020/12/23 09:30:04;;;;;;;7.10;3.53;;;;;;;;;;5110002;28;20190;-63
2020/12/23 09:32:30;;;;;;;8.27;4.70;;;;;;;;;;5107701;28;20652;-62
2020/12/23 09:35:31;;;;;;;8.77;4.07;;;;;;;;;;5084661;28;20182;-62
2020/12/23 09:38:23;;;;;;;7.80;5.13;;;;;;;;;;5003959;28;21080;-63
2020/12/23 09:40:50;;;;;;;7.17;4.87;;;;;;;;;;5101469;28;20213;-63
2020/12/23 09:43:20;;;;;;;7.27;5.57;;;;;;;;;;5114946;27;20186;-62
2020/12/23 09:45:47;;;;;;;9.37;5.07;;;;;;;;;;5116123;27;20200;-62
2020/12/23 09:48:14;;;;;;;7.13;5.10;;;;;;;;;;5130200;27;20178;-62
2020/12/23 09:50:41;;;;;;;7.80;5.73;;;;;;;;;;5130528;27;20544;-63
2020/12/23 09:53:07;;;;;;;7.07;5.43;;;;;;;;;;5082093;28;20172;-62
2020/12/23 09:55:33;;;;;;;8.43;6.83;;;;;;;;;;5113857;27;20178;-63
2020/12/23 09:57:59;;;;;;;8.80;6.23;;;;;;;;;;5111789;27;20166;-62
2020/12/23 10:00:27;;;;;;;6.23;5.20;;;;;;;;;;5113369;27;20236;-62
2020/12/23 10:02:53;;;;;;;6.23;5.30;;;;;;;;;;5116921;27;20179;-63
2020/12/23 10:05:19;;;;;;;7.40;5.63;;;;;;;;;;5115833;27;20244;-62
2020/12/23 10:07:45;;;;;;;6.83;5.20;;;;;;;;;;5121372;27;20182;-62
2020/12/23 10:10:11;;;;;;;8.50;5.90;;;;;;;;;;5119112;27;20183;-64
2020/12/23 10:12:37;;;;;;;7.97;5.73;;;;;;;;;;5123696;27;20178;-61
2020/12/23 10:15:04;;;;;;;6.80;5.67;;;;;;;;;;5110524;27;20176;-61
2020/12/23 10:17:30;;;;;;;6.20;5.47;;;;;;;;;;5128608;27;20185;-60
2020/12/23 10:19:56;;;;;;;8.53;6.30;;;;;;;;;;5120865;27;20227;-64
2020/12/23 10:22:22;;;;;;;7.13;5.90;;;;;;;;;;5114563;27;20263;-62
2020/12/23 10:24:48;;;;;;;6.37;5.37;;;;;;;;;;5118810;27;20290;-60
2020/12/23 10:27:14;;;;;;;8.50;5.33;;;;;;;;;;5088285;28;20175;-61
2020/12/23 10:29:40;;;;;;;8.50;5.47;;;;;;;;;;5112881;28;20183;-61
2020/12/23 10:32:06;;;;;;;5.73;5.00;;;;;;;;;;5106371;28;20176;-61
2020/12/23 10:34:32;;;;;;;6.33;4.87;;;;;;;;;;5107189;27;20261;-62
2020/12/23 10:36:58;;;;;;;5.13;4.53;;;;;;;;;;5110203;28;20309;-61
2020/12/23 10:39:25;;;;;;;5.73;4.40;;;;;;;;;;5111679;27;20203;-62
2020/12/23 10:41:54;;;;;;;6.00;4.27;;;;;;;;;;5101519;28;20176;-62
2020/12/23 10:44:21;;;;;;;4.67;4.23;;;;;;;;;;5086937;28;20297;-61
2020/12/23 10:46:47;;;;;;;4.20;3.80;;;;;;;;;;5109676;27;20200;-61
2020/12/23 10:49:13;;;;;;;4.87;3.53;;;;;;;;;;5118775;27;20191;-61
2020/12/23 10:51:39;;;;;;;4.47;3.73;;;;;;;;;;5111087;27;20578;-62
2020/12/23 10:54:05;;;;;;;4.20;3.80;;;;;;;;;;5102655;27;20266;-61
2020/12/23 10:56:31;;;;;;;4.87;3.47;;;;;;;;;;5103689;28;20187;-61
2020/12/23 10:58:57;;;;;;;5.57;3.43;;;;;;;;;;5098653;28;20176;-61
2020/12/23 11:01:23;;;;;;;4.33;3.60;;;;;;;;;;5089876;28;20175;-61
2020/12/23 11:03:49;;;;;;;3.63;3.33;;;;;;;;;;5091790;28;20236;-63
2020/12/23 11:06:16;;;;;;;3.77;3.43;;;;;;;;;;5107883;27;20198;-61
2020/12/23 11:08:42;;;;;;;3.77;3.40;;;;;;;;;;5108006;28;20179;-61
2020/12/23 11:11:12;;;;;;;3.70;3.13;;;;;;;;;;5105914;28;20175;-61
2020/12/23 11:13:39;;;;;;;3.90;3.40;;;;;;;;;;5101387;27;20197;-61
2020/12/23 11:16:05;;;;;;;4.93;3.33;;;;;;;;;;5114182;27;20187;-62
2020/12/23 11:18:31;;;;;;;5.00;3.60;;;;;;;;;;5111053;27;20198;-61
2020/12/23 11:20:57;;;;;;;4.60;3.13;;;;;;;;;;5084596;28;20212;-61
2020/12/23 11:23:24;;;;;;;4.07;3.67;;;;;;;;;;5100960;28;20174;-61
2020/12/23 11:25:50;;;;;;;5.20;3.70;;;;;;;;;;5103025;28;20344;-62
2020/12/23 11:28:16;;;;;;;3.93;3.53;;;;;;;;;;5117583;27;20253;-62
2020/12/23 11:30:42;;;;;;;8.00;3.03;;;;;;;;;;5133761;27;20589;-62
2020/12/23 11:33:08;;;;;;;3.60;3.30;;;;;;;;;;5100466;28;20180;-61
2020/12/23 11:35:34;;;;;;;5.53;3.63;;;;;;;;;;5094757;27;20220;-62
2020/12/23 11:38:00;;;;;;;4.20;3.47;;;;;;;;;;5094229;28;20175;-61
2020/12/23 11:40:26;;;;;;;4.80;3.00;;;;;;;;;;5112627;28;20175;-61
2020/12/23 11:42:52;;;;;;;3.40;3.10;;;;;;;;;;5112215;28;20213;-61
2020/12/23 11:45:18;;;;;;;3.70;3.27;;;;;;;;;;5117615;27;20205;-61
2020/12/23 11:47:45;;;;;;;4.10;3.53;;;;;;;;;;5111066;27;20637;-61
2020/12/23 11:50:11;;;;;;;4.50;3.60;;;;;;;;;;5109913;28;20765;-61
2020/12/23 11:52:37;;;;;;;5.17;3.33;;;;;;;;;;5093667;28;20275;-62
2020/12/23 11:55:04;;;;;;;5.40;3.03;;;;;;;;;;5100892;28;20258;-61
2020/12/23 11:57:30;;;;;;;3.60;3.30;;;;;;;;;;5098844;28;20682;-61
2020/12/23 11:59:56;;;;;;;5.90;3.30;;;;;;;;;;5114548;27;20254;-62
2020/12/23 12:02:22;;;;;;;4.07;3.00;;;;;;;;;;5088702;28;20667;-62
2020/12/23 12:04:48;;;;;;;3.80;2.97;;;;;;;;;;5109855;28;20218;-61
2020/12/23 12:07:14;;;;;;;5.57;3.63;;;;;;;;;;5111588;27;20637;-61
2020/12/23 12:09:40;;;;;;;6.07;4.10;;;;;;;;;;5095301;27;20218;-61
2020/12/23 12:12:06;;;;;;;3.93;2.90;;;;;;;;;;5131730;27;20560;-61
2020/12/23 12:14:32;;;;;;;3.87;3.47;;;;;;;;;;5105231;27;20203;-63
2020/12/23 12:16:58;;;;;;;4.73;3.70;;;;;;;;;;5112728;27;20260;-61
2020/12/23 12:19:24;;;;;;;3.03;2.73;;;;;;;;;;5117971;27;20194;-61
2020/12/23 12:21:50;;;;;;;5.73;2.90;;;;;;;;;;5117386;27;20633;-60
2020/12/23 12:24:16;;;;;;;6.30;3.40;;;;;;;;;;5116314;27;20194;-60
2020/12/23 12:26:42;;;;;;;4.57;3.60;;;;;;;;;;5109323;27;20203;-62
2020/12/23 12:29:08;;;;;;;3.67;3.20;;;;;;;;;;5091660;28;20617;-60
2020/12/23 12:31:34;;;;;;;4.43;2.57;;;;;;;;;;5085606;28;20641;-60
2020/12/23 12:34:00;;;;;;;10.17;3.23;;;;;;;;;;5118553;27;20177;-61
2020/12/23 12:36:26;;;;;;;4.17;2.87;;;;;;;;;;5119545;27;20183;-60
2020/12/23 12:38:52;;;;;;;8.93;3.40;;;;;;;;;;5116773;27;20186;-61
2020/12/23 12:41:25;;;;;;;4.57;3.23;;;;;;;;;;5111455;27;20215;-63
2020/12/23 12:43:51;;;;;;;10.20;3.47;;;;;;;;;;5104654;28;20208;-61
2020/12/23 12:46:17;;;;;;;9.97;2.73;;;;;;;;;;5105445;28;20706;-60
2020/12/23 12:48:44;;;;;;;26.53;4.27;;;;;;;;;;5108737;28;20171;-61
2020/12/23 12:51:10;;;;;;;9.67;2.60;;;;;;;;;;5108047;28;20250;-60
2020/12/23 12:53:36;;;;;;;7.00;2.67;;;;;;;;;;5104090;28;20401;-61
2020/12/23 12:56:02;;;;;;;6.07;2.67;;;;;;;;;;5101371;28;20633;-60
2020/12/23 12:58:28;;;;;;;6.83;2.60;;;;;;;;;;5089529;28;20596;-59
2020/12/23 13:00:54;;;;;;;4.33;2.67;;;;;;;;;;5110175;28;20636;-59
2020/12/23 13:03:20;;;;;;;2.97;2.23;;;;;;;;;;5110381;27;20191;-59
2020/12/23 13:05:50;;;;;;;4.83;2.20;;;;;;;;;;5105985;28;20215;-59
2020/12/23 13:08:16;;;;;;;6.03;2.10;;;;;;;;;;5108302;27;20167;-59
2020/12/23 13:10:42;;;;;;;2.27;1.90;;;;;;;;;;5110444;28;20167;-60
2020/12/23 13:13:08;;;;;;;10.67;2.37;;;;;;;;;;5105993;28;20175;-61
2020/12/23 13:15:34;;;;;;;2.70;1.93;;;;;;;;;;5112182;28;20224;-59
2020/12/23 13:18:00;;;;;;;4.00;2.00;;;;;;;;;;5104475;28;20176;-60
2020/12/23 13:20:26;;;;;;;2.63;2.10;;;;;;;;;;5103721;28;20195;-59
2020/12/23 13:22:52;;;;;;;3.93;2.37;;;;;;;;;;5111380;28;20186;-60
2020/12/23 13:25:18;;;;;;;3.80;1.90;;;;;;;;;;5106998;28;20661;-59
2020/12/23 13:27:44;;;;;;;3.73;2.00;;;;;;;;;;5101444;28;20660;-59
2020/12/23 13:30:10;;;;;;;4.20;2.20;;;;;;;;;;5102151;28;20673;-59
2020/12/23 13:32:36;;;;;;;2.13;1.90;;;;;;;;;;5094752;28;20171;-60
2020/12/23 13:35:03;;;;;;;4.63;2.33;;;;;;;;;;5100733;28;20195;-60
2020/12/23 13:37:29;;;;;;;2.17;1.93;;;;;;;;;;5096008;28;20182;-60
2020/12/23 13:39:55;;;;;;;3.13;1.73;;;;;;;;;;5101231;28;20176;-59
2020/12/23 13:42:21;;;;;;;2.93;1.87;;;;;;;;;;5094030;28;20176;-59
2020/12/23 13:44:47;;;;;;;5.20;1.83;;;;;;;;;;5109342;28;20183;-59
2020/12/23 13:47:13;;;;;;;2.50;1.90;;;;;;;;;;5112587;28;20646;-60
2020/12/23 13:49:39;;;;;;;3.10;1.90;;;;;;;;;;5105926;28;20171;-60
2020/12/23 13:52:10;;;;;;;2.00;1.60;;;;;;;;;;5097221;28;20183;-59
2020/12/23 13:54:36;;;;;;;2.97;2.00;;;;;;;;;;5110100;28;20183;-59
2020/12/23 13:57:02;;;;;;;1.93;1.73;;;;;;;;;;5112746;28;20179;-60
2020/12/23 13:59:28;;;;;;;3.87;1.73;;;;;;;;;;5112394;28;20217;-59
2020/12/23 14:01:54;;;;;;;1.77;1.63;;;;;;;;;;5114192;28;20167;-59
2020/12/23 14:04:20;;;;;;;2.07;1.87;;;;;;;;;;5113120;28;20215;-59
2020/12/23 14:06:46;;;;;;;2.50;1.90;;;;;;;;;;5113867;28;20194;-60
2020/12/23 14:09:12;;;;;;;3.40;2.10;;;;;;;;;;5113451;28;20179;-62
2020/12/23 14:11:38;;;;;;;2.17;1.87;;;;;;;;;;5113849;28;20171;-60
2020/12/23 14:14:04;;;;;;;2.80;1.90;;;;;;;;;;5095395;28;20598;-60
2020/12/23 14:16:31;;;;;;;2.27;1.83;;;;;;;;;;5112768;28;20241;-60
2020/12/23 14:18:57;;;;;;;2.53;1.73;;;;;;;;;;5094539;28;20630;-59
2020/12/23 14:21:25;;;;;;;3.87;1.90;;;;;;;;;;5093397;28;20199;-61
2020/12/23 14:23:51;;;;;;;4.20;2.00;;;;;;;;;;5100668;28;20186;-59
2020/12/23 14:26:17;;;;;;;3.03;1.73;;;;;;;;;;5111082;28;20289;-59
2020/12/23 14:28:43;;;;;;;4.73;2.40;;;;;;;;;;5113619;28;20575;-60
2020/12/23 14:31:10;;;;;;;3.07;2.00;;;;;;;;;;5107956;28;20291;-60
2020/12/23 14:33:36;;;;;;;2.40;1.63;;;;;;;;;;5112922;27;20708;-59
2020/12/23 14:36:04;;;;;;;1.70;1.60;;;;;;;;;;5093388;28;20621;-59
2020/12/23 14:38:30;;;;;;;4.43;1.93;;;;;;;;;;5108362;28;20620;-59